עמוד ראשי
METAR-TAF:

METAR-TAF

שדות תעופה :

אסואירה, מרוקו

קו רוחב: 31-31N, קו אורך: 009-47W, גובה: 15מטר

תצפית מזג אוויר נוכחית

הדו"ח נערך לפני 1 שעות ו 18דקות, בשעה 15:00 UTC
רוח 10קשר מכיוון צפון/צפון-מערב, משתנה בין מערב/צפון-מערב ו צפון
טמפרטורת 32 צלסיוס
לחות 41%
לחץ 1011 hPa
ראות: 6000מטר

METAR: GMMI 141500Z 33010KT 300V360 6000 NSC 32/17 Q1011 NOSIG

זמן: 17:18 (16:18 UTC)

תחזית

הדו"ח נערך לפני 5 שעות ו 18דקות, בשעה 11:00 UTC
תחזית בתוקף מ 14 ב 12 UTC עד 15 ב 18 UTC
רוח 10קשר מכיוון מערב/צפון-מערב
ראות: 6000מטר

TAF: GMMI 141100Z 1412/1518 30010KT 6000 NSC

תצפיות ותחזיות מזג אוויר לגבי יותר מ- 4,000 שדות תעופה ברחבי העולם. דוחות METAR ו- TAF.

התחנות הזמינות מסומנות בנקודות צהובות ואדומות על גבי המפה.

העבר את העכבר לנקודה הצבעונית על מנת לראות את שם התחנה.

לאחר מכן, לחץ כדי לראות את תוכן ואת תחזיות מזג האוויר.

כדי לשנות את המפה: לחץ על הכפתורים הירוקים עם הפלוס השחור כדי להתקרב; על הכפתור הירוק עם המקף כדי להתרחק; או בחיצים הירוקים למפות סמוכות.


METAR-TAF: